createdAt,value
2022-11-08T00:02:24.973Z,91.27
2022-11-08T00:04:52.012Z,91.32
2022-11-08T00:07:37.683Z,91.33
2022-11-08T00:10:23.411Z,91.16
2022-11-08T00:13:09.180Z,91.32
2022-11-08T00:15:39.107Z,91.27
2022-11-08T00:18:06.526Z,91.02
2022-11-08T00:20:33.848Z,91.69
2022-11-08T00:23:00.707Z,91.73
2022-11-08T00:25:27.458Z,91.89
2022-11-08T00:27:54.215Z,91.27
2022-11-08T00:30:21.123Z,92.09
2022-11-08T00:32:47.850Z,92.01
2022-11-08T00:35:14.705Z,91.36
2022-11-08T00:37:41.501Z,91.74
2022-11-08T00:40:08.667Z,91.55
2022-11-08T00:42:35.512Z,91.53
2022-11-08T00:45:02.218Z,91.34
2022-11-08T00:47:28.975Z,91.25
2022-11-08T00:49:55.748Z,91.19
2022-11-08T00:52:22.629Z,90.71
2022-11-08T00:54:49.501Z,91.44
2022-11-08T00:57:16.200Z,90.95
2022-11-08T00:59:43.218Z,90.83
2022-11-08T01:02:10.082Z,91.02
2022-11-08T01:04:36.870Z,90.69
2022-11-08T01:07:03.617Z,90.68
2022-11-08T01:09:30.383Z,90.65
2022-11-08T01:11:57.119Z,90.99
2022-11-08T01:14:23.972Z,90.72
2022-11-08T01:16:50.864Z,90.86
2022-11-08T01:19:17.683Z,90.68
2022-11-08T01:21:44.469Z,90.27
2022-11-08T01:24:11.230Z,90.85
2022-11-08T01:26:38.010Z,90.60
2022-11-08T01:29:04.870Z,90.35
2022-11-08T01:31:32.490Z,90.68
2022-11-08T01:33:59.687Z,90.92
2022-11-08T01:36:27.385Z,91.45
2022-11-08T01:38:54.675Z,91.25
2022-11-08T01:41:22.511Z,91.48
2022-11-08T01:43:50.409Z,91.33
2022-11-08T01:46:20.316Z,91.24
2022-11-08T01:48:59.492Z,91.06
2022-11-08T01:51:37.184Z,91.41
2022-11-08T01:54:07.011Z,91.10
2022-11-08T01:56:33.890Z,90.82
2022-11-08T01:59:02.967Z,91.66
2022-11-08T02:01:30.002Z,91.07
2022-11-08T02:03:58.095Z,91.66
2022-11-08T02:06:25.254Z,91.45
2022-11-08T02:08:52.022Z,91.29
2022-11-08T02:11:19.054Z,91.79
2022-11-08T02:13:45.939Z,91.27
2022-11-08T02:16:14.029Z,90.96
2022-11-08T02:18:42.329Z,91.03
2022-11-08T02:21:09.076Z,90.96
2022-11-08T02:24:14.434Z,90.66
2022-11-08T02:26:41.753Z,90.63
2022-11-08T02:29:27.597Z,90.66
2022-11-08T02:31:54.794Z,90.61
2022-11-08T02:34:23.943Z,91.26
2022-11-08T02:36:50.977Z,91.04
2022-11-08T02:39:18.316Z,91.73
2022-11-08T02:41:45.069Z,91.63
2022-11-08T02:44:11.903Z,91.13
2022-11-08T02:46:38.713Z,91.17
2022-11-08T02:49:05.509Z,91.95
2022-11-08T02:51:32.325Z,91.74
2022-11-08T02:53:59.059Z,91.29
2022-11-08T02:56:25.883Z,91.49
2022-11-08T02:58:52.870Z,92.01
2022-11-08T03:01:19.661Z,91.67
2022-11-08T03:03:46.482Z,91.53
2022-11-08T03:06:13.600Z,91.94
2022-11-08T03:08:40.395Z,91.75
2022-11-08T03:11:07.161Z,92.23
2022-11-08T03:13:35.061Z,92.09
2022-11-08T03:16:02.717Z,92.10
2022-11-08T03:18:29.678Z,92.09
2022-11-08T03:20:56.477Z,92.33
2022-11-08T03:23:23.414Z,92.38
2022-11-08T03:25:50.130Z,91.82
2022-11-08T03:28:21.695Z,92.21
2022-11-08T03:30:50.543Z,92.53
2022-11-08T03:33:17.487Z,92.41
2022-11-08T03:35:44.239Z,92.43
2022-11-08T03:38:11.103Z,92.76
2022-11-08T03:40:37.813Z,92.71
2022-11-08T03:43:04.638Z,92.84
2022-11-08T03:45:31.549Z,92.31
2022-11-08T03:50:42.659Z,92.54
2022-11-08T03:53:09.443Z,92.56
2022-11-08T03:55:36.325Z,92.56
2022-11-08T03:58:03.280Z,91.93
2022-11-08T04:00:30.157Z,92.76
2022-11-08T04:03:01.519Z,92.38
2022-11-08T04:05:28.246Z,92.74
2022-11-08T04:07:55.014Z,92.43
2022-11-08T04:10:21.766Z,92.36
2022-11-08T04:13:07.366Z,92.61
2022-11-08T04:15:34.268Z,92.24
2022-11-08T04:18:19.978Z,92.53
2022-11-08T04:21:06.390Z,92.47
2022-11-08T04:23:36.820Z,92.92
2022-11-08T04:26:05.441Z,92.94
2022-11-08T04:28:33.103Z,92.33
2022-11-08T04:31:01.405Z,92.36
2022-11-08T04:33:28.204Z,92.75
2022-11-08T04:35:54.988Z,92.53
2022-11-08T04:38:22.426Z,92.42
2022-11-08T04:40:52.199Z,92.64
2022-11-08T04:43:18.956Z,92.17
2022-11-08T04:45:45.777Z,93.15
2022-11-08T04:48:12.551Z,92.56
2022-11-08T04:50:39.282Z,93.35
2022-11-08T04:53:06.117Z,94.58
2022-11-08T04:55:33.146Z,93.58
2022-11-08T04:58:00.248Z,93.59
2022-11-08T05:00:27.501Z,95.28
2022-11-08T05:02:54.681Z,95.10
2022-11-08T05:05:21.945Z,94.55
2022-11-08T05:07:48.920Z,94.50
2022-11-08T05:10:15.860Z,94.34
2022-11-08T05:12:42.590Z,94.24
2022-11-08T05:15:09.716Z,94.20
2022-11-08T05:17:36.496Z,94.55
2022-11-08T05:20:22.465Z,94.46
2022-11-08T05:23:08.279Z,93.59
2022-11-08T05:25:38.506Z,94.16
2022-11-08T05:28:05.262Z,94.02
2022-11-08T05:30:32.040Z,93.83
2022-11-08T05:32:58.809Z,94.36
2022-11-08T05:35:25.723Z,94.88
2022-11-08T05:37:52.520Z,95.82
2022-11-08T05:40:19.254Z,95.50
2022-11-08T05:42:46.062Z,96.25
2022-11-08T05:45:12.914Z,96.65
2022-11-08T05:47:39.652Z,96.30
2022-11-08T05:50:06.679Z,96.48
2022-11-08T05:52:33.585Z,96.14
2022-11-08T05:55:00.568Z,96.75
2022-11-08T05:57:27.293Z,96.76
2022-11-08T05:59:54.227Z,97.05
2022-11-08T06:02:21.164Z,97.51
2022-11-08T06:04:48.061Z,98.55
2022-11-08T06:07:14.822Z,98.89
2022-11-08T06:09:41.740Z,100.00
2022-11-08T06:12:08.749Z,99.70
2022-11-08T06:14:35.599Z,99.36
2022-11-08T06:17:02.362Z,100.00
2022-11-08T06:19:29.096Z,100.00
2022-11-08T06:21:55.919Z,100.00
2022-11-08T06:24:22.964Z,100.00
2022-11-08T06:26:49.707Z,100.00
2022-11-08T06:29:16.484Z,100.00
2022-11-08T06:31:43.477Z,100.00
2022-11-08T06:34:10.826Z,100.00
2022-11-08T06:36:37.601Z,100.00
2022-11-08T06:39:04.557Z,100.00
2022-11-08T06:41:32.572Z,100.00
2022-11-08T06:43:59.822Z,99.74
2022-11-08T06:46:26.791Z,98.99
2022-11-08T06:48:53.582Z,98.45
2022-11-08T06:51:20.661Z,98.79
2022-11-08T06:53:47.723Z,98.14
2022-11-08T06:56:14.582Z,97.94
2022-11-08T06:58:41.507Z,97.65
2022-11-08T07:01:09.994Z,96.86
2022-11-08T07:03:36.969Z,97.52
2022-11-08T07:38:23.998Z,100.00
2022-11-08T07:40:52.079Z,100.00
2022-11-08T07:43:19.993Z,99.81
2022-11-08T07:45:48.638Z,99.16
2022-11-08T07:48:16.186Z,96.13
2022-11-08T07:50:43.616Z,94.23
2022-11-08T07:53:11.673Z,92.63
2022-11-08T07:55:39.816Z,90.79
2022-11-08T07:58:08.205Z,90.25
2022-11-08T08:00:37.785Z,89.37
2022-11-08T08:03:07.874Z,88.86
2022-11-08T08:05:40.673Z,89.15
2022-11-08T08:08:11.266Z,88.96
2022-11-08T08:10:40.072Z,88.81
2022-11-08T08:13:15.725Z,88.00
2022-11-08T08:15:46.381Z,86.83
2022-11-08T08:18:14.069Z,86.26
2022-11-08T08:20:41.518Z,87.46
2022-11-08T08:23:09.349Z,87.84
2022-11-08T08:25:36.673Z,88.65
2022-11-08T08:28:06.545Z,91.94
2022-11-08T08:30:34.972Z,92.32
2022-11-08T08:33:27.425Z,94.68
2022-11-08T08:36:02.691Z,96.47
2022-11-08T08:38:31.617Z,97.46
2022-11-08T08:41:02.937Z,97.87
2022-11-08T08:43:33.001Z,99.49
2022-11-08T08:46:02.464Z,100.00
2022-11-08T08:48:30.980Z,100.00
2022-11-08T08:50:58.337Z,100.00
2022-11-08T08:53:26.426Z,100.00
2022-11-08T08:55:53.985Z,100.00
2022-11-08T08:58:23.006Z,100.00
2022-11-08T09:03:41.457Z,99.53
2022-11-08T09:06:11.192Z,99.94
2022-11-08T09:08:38.721Z,99.90
2022-11-08T09:11:09.223Z,98.73
2022-11-08T09:13:39.738Z,98.32
2022-11-08T09:16:08.574Z,97.60
2022-11-08T09:18:36.806Z,96.80
2022-11-08T09:21:04.766Z,96.21
2022-11-08T09:23:42.951Z,96.25
2022-11-08T09:26:11.294Z,95.88
2022-11-08T09:28:39.533Z,95.95
2022-11-08T09:31:09.738Z,92.77
2022-11-08T09:33:38.136Z,90.29
2022-11-08T09:36:07.322Z,90.17
2022-11-08T09:38:35.319Z,89.05
2022-11-08T09:41:12.309Z,89.66
2022-11-08T09:43:57.273Z,89.78
2022-11-08T09:46:51.810Z,89.24
2022-11-08T09:49:34.161Z,87.39
2022-11-08T09:52:06.790Z,85.88
2022-11-08T09:54:45.841Z,85.43
2022-11-08T09:57:25.130Z,85.77
2022-11-08T10:00:01.733Z,85.05
2022-11-08T10:02:29.336Z,84.32
2022-11-08T10:05:06.188Z,83.96
2022-11-08T10:07:37.528Z,83.95
2022-11-08T10:10:38.117Z,83.60
2022-11-08T10:13:23.305Z,82.97
2022-11-08T10:16:02.814Z,80.10
2022-11-08T10:18:36.499Z,79.77
2022-11-08T10:21:25.486Z,80.55
2022-11-08T10:24:05.133Z,79.76
2022-11-08T10:26:48.332Z,78.69
2022-11-08T10:29:20.012Z,76.31
2022-11-08T10:32:04.695Z,76.90
2022-11-08T10:34:45.075Z,76.00
2022-11-08T10:37:15.456Z,76.45
2022-11-08T10:39:59.451Z,74.23
2022-11-08T10:42:39.954Z,72.97
2022-11-08T10:45:18.312Z,71.80
2022-11-08T10:47:47.350Z,71.82
2022-11-08T10:50:20.253Z,72.72
2022-11-08T10:53:01.374Z,69.94
2022-11-08T10:55:47.831Z,69.40
2022-11-08T10:58:44.378Z,69.59
2022-11-08T11:01:14.914Z,70.31
2022-11-08T11:03:44.732Z,70.35
2022-11-08T11:06:31.129Z,70.62
2022-11-08T11:09:01.654Z,70.47
2022-11-08T11:11:32.160Z,69.45
2022-11-08T11:14:22.972Z,68.28
2022-11-08T11:17:12.077Z,69.28
2022-11-08T11:19:48.353Z,69.82
2022-11-08T11:22:16.143Z,70.52
2022-11-08T11:24:51.416Z,70.41
2022-11-08T11:27:25.059Z,68.35
2022-11-08T11:30:13.429Z,68.16
2022-11-08T11:32:58.336Z,68.28
2022-11-08T11:35:32.666Z,68.31
2022-11-08T11:38:08.304Z,69.86
2022-11-08T11:40:44.350Z,69.72
2022-11-08T11:43:34.725Z,70.58
2022-11-08T11:46:33.591Z,70.48
2022-11-08T11:49:13.210Z,69.90
2022-11-08T11:51:58.033Z,70.32
2022-11-08T11:54:34.368Z,70.94
2022-11-08T11:57:08.897Z,71.68
2022-11-08T12:00:21.796Z,71.67
2022-11-08T12:18:43.990Z,69.79
2022-11-08T12:21:11.963Z,69.95
2022-11-08T12:23:48.818Z,70.77
2022-11-08T12:26:25.152Z,68.48
2022-11-08T12:28:57.355Z,66.67
2022-11-08T12:31:32.490Z,66.17
2022-11-08T12:34:35.783Z,66.40
2022-11-08T12:37:24.411Z,66.18
2022-11-08T12:40:01.324Z,65.62
2022-11-08T12:42:55.010Z,67.01
2022-11-08T12:46:20.540Z,66.05
2022-11-08T12:49:00.320Z,66.72
2022-11-08T12:51:43.441Z,65.58
2022-11-08T12:54:23.037Z,65.94
2022-11-08T12:56:53.314Z,67.30
2022-11-08T12:59:29.731Z,66.26
2022-11-08T13:01:59.181Z,66.51
2022-11-08T13:04:29.938Z,66.15
2022-11-08T13:07:18.464Z,65.85
2022-11-08T13:09:59.292Z,65.75
2022-11-08T13:12:53.378Z,65.68
2022-11-08T13:15:25.891Z,65.42
2022-11-08T13:18:10.186Z,66.06
2022-11-08T13:20:43.742Z,65.72
2022-11-08T13:23:30.755Z,66.36
2022-11-08T13:26:26.675Z,67.55
2022-11-08T13:28:55.048Z,67.45
2022-11-08T13:31:43.055Z,67.71
2022-11-08T13:34:35.860Z,68.33
2022-11-08T13:40:55.846Z,69.04
2022-11-08T14:51:27.563Z,75.41
2022-11-08T14:58:36.055Z,77.44
2022-11-08T15:05:48.472Z,78.68
2022-11-08T15:12:03.728Z,79.23
2022-11-08T15:15:20.510Z,80.17
2022-11-08T15:21:37.597Z,79.78
2022-11-08T15:24:35.921Z,80.01
2022-11-08T15:28:02.868Z,80.85
2022-11-08T15:30:39.799Z,81.19
2022-11-08T17:36:30.240Z,89.64
2022-11-08T17:38:57.933Z,90.37
2022-11-08T17:41:25.424Z,89.89
2022-11-08T17:43:56.114Z,90.49
2022-11-08T17:46:23.783Z,90.55
2022-11-08T17:48:51.546Z,89.85
2022-11-08T17:51:24.426Z,90.59
2022-11-08T17:54:30.275Z,91.34
2022-11-08T17:57:00.748Z,91.04
2022-11-08T17:59:31.895Z,91.38
2022-11-08T18:01:59.828Z,90.80
2022-11-08T18:07:45.460Z,91.52
2022-11-08T18:10:23.241Z,91.36
2022-11-08T18:12:50.699Z,91.88
2022-11-08T18:15:39.775Z,91.06
2022-11-08T18:18:13.360Z,91.15
2022-11-08T18:21:11.974Z,91.41
2022-11-08T18:27:00.670Z,91.13
2022-11-08T18:29:27.785Z,90.99
2022-11-08T18:31:59.579Z,91.92
2022-11-08T18:34:30.289Z,91.10
2022-11-08T18:37:00.356Z,91.49
2022-11-08T18:39:28.024Z,92.01
2022-11-08T18:41:55.460Z,91.82
2022-11-08T18:44:22.986Z,91.51
2022-11-08T18:46:53.638Z,91.71
2022-11-08T18:49:21.157Z,92.04
2022-11-08T18:51:52.846Z,92.56
2022-11-08T18:54:20.823Z,92.66
2022-11-08T18:56:48.816Z,93.15
2022-11-08T18:59:15.765Z,93.38
2022-11-08T19:01:43.271Z,93.08
2022-11-08T19:04:13.609Z,92.97
2022-11-08T19:06:48.838Z,93.66
2022-11-08T19:11:28.117Z,92.88
2022-11-08T19:12:10.819Z,93.27
2022-11-08T19:14:38.631Z,92.82
2022-11-08T19:17:06.017Z,92.38
2022-11-08T19:19:35.116Z,92.33
2022-11-08T19:22:09.632Z,91.20
2022-11-08T19:24:37.096Z,91.23
2022-11-08T19:27:04.827Z,91.60
2022-11-08T19:29:32.330Z,91.86
2022-11-08T19:34:52.828Z,91.94
2022-11-08T19:37:19.987Z,92.61
2022-11-08T19:39:49.977Z,92.24
2022-11-08T19:42:17.213Z,92.65
2022-11-08T19:44:47.356Z,92.46
2022-11-08T19:47:14.793Z,92.99
2022-11-08T19:49:42.215Z,92.73
2022-11-08T19:52:09.688Z,92.68
2022-11-08T19:54:37.203Z,92.76
2022-11-08T19:57:05.834Z,93.29
2022-11-08T19:59:33.910Z,92.46
2022-11-08T20:02:23.780Z,92.67
2022-11-08T20:04:48.999Z,92.93
2022-11-08T20:07:17.510Z,92.48
2022-11-08T20:09:47.952Z,92.96
2022-11-08T20:12:15.352Z,92.06
2022-11-08T20:14:42.650Z,92.87
2022-11-08T20:17:09.900Z,94.45
2022-11-08T20:19:37.452Z,94.14
2022-11-08T20:22:04.626Z,93.78
2022-11-08T20:24:31.948Z,93.87
2022-11-08T20:26:59.337Z,94.42
2022-11-08T20:29:29.845Z,93.84
2022-11-08T20:31:57.387Z,94.16
2022-11-08T20:34:26.310Z,94.00
2022-11-08T20:36:54.343Z,93.87
2022-11-08T20:39:21.811Z,93.67
2022-11-08T20:41:49.228Z,93.82
2022-11-08T20:44:17.082Z,93.68
2022-11-08T20:46:44.701Z,93.50
2022-11-08T20:49:12.006Z,93.91
2022-11-08T20:51:39.243Z,94.14
2022-11-08T20:54:07.530Z,94.54
2022-11-08T20:56:36.558Z,94.46
2022-11-08T20:59:04.311Z,94.11
2022-11-08T21:01:33.222Z,94.06
2022-11-08T21:04:01.500Z,94.01
2022-11-08T21:06:32.946Z,94.29
2022-11-08T21:11:49.643Z,93.90
2022-11-08T21:14:47.892Z,94.55
2022-11-08T21:17:22.448Z,94.27
2022-11-08T21:19:51.378Z,94.33
2022-11-08T21:22:29.673Z,94.87
2022-11-08T21:25:00.437Z,95.03
2022-11-08T21:27:34.578Z,95.50
2022-11-08T21:30:04.987Z,95.79
2022-11-08T21:33:05.173Z,95.73
2022-11-08T21:35:35.908Z,95.98
2022-11-08T21:38:04.750Z,95.74
2022-11-08T21:40:37.006Z,95.92
2022-11-08T21:43:09.802Z,95.84
2022-11-08T21:45:37.461Z,95.12
2022-11-08T21:48:14.153Z,95.43
2022-11-08T21:50:47.584Z,95.33
2022-11-08T21:53:19.116Z,95.67
2022-11-08T21:55:49.125Z,96.41
2022-11-08T21:58:16.673Z,96.42
2022-11-08T22:00:51.456Z,96.43
2022-11-08T22:03:28.184Z,96.11
2022-11-08T22:05:55.514Z,96.12
2022-11-08T22:08:31.261Z,95.91
2022-11-08T22:10:58.714Z,95.66
2022-11-08T22:13:38.061Z,95.48
2022-11-08T22:16:08.778Z,95.54
2022-11-08T22:19:03.533Z,96.30
2022-11-08T22:21:39.956Z,95.93
2022-11-08T22:24:15.940Z,95.98
2022-11-08T22:26:48.637Z,95.64
2022-11-08T22:29:16.983Z,95.47
2022-11-08T22:32:04.523Z,95.55
2022-11-08T22:37:45.588Z,95.42
2022-11-08T22:40:17.790Z,95.22
2022-11-08T22:42:47.513Z,95.50
2022-11-08T22:45:36.927Z,95.45
2022-11-08T22:48:04.339Z,95.67
2022-11-08T22:50:31.919Z,95.04
2022-11-08T22:52:59.480Z,95.54
2022-11-08T22:55:41.308Z,95.49
2022-11-08T22:58:23.322Z,95.14
2022-11-08T23:01:20.271Z,94.96
2022-11-08T23:04:00.145Z,94.97
2022-11-08T23:06:32.114Z,95.06
2022-11-08T23:09:07.835Z,94.85
2022-11-08T23:12:08.329Z,95.09
2022-11-08T23:17:44.617Z,94.76
2022-11-08T23:20:32.975Z,95.30
2022-11-08T23:23:49.276Z,94.71
2022-11-08T23:26:10.032Z,95.07
2022-11-08T23:28:56.231Z,95.40
2022-11-08T23:32:01.629Z,95.04
2022-11-08T23:34:29.907Z,94.70
2022-11-08T23:36:57.049Z,95.28
2022-11-08T23:39:24.518Z,94.99
2022-11-08T23:42:10.695Z,95.31
2022-11-08T23:44:38.350Z,94.97
2022-11-08T23:47:29.021Z,95.47
2022-11-08T23:49:56.638Z,95.29
2022-11-08T23:52:39.371Z,95.70
2022-11-08T23:55:11.573Z,94.92
2022-11-08T23:57:39.205Z,95.15
